Time;durP1;ratioP1;P1;durP2;ratioP2;P2;SDS_P1;SDS_P2;PMS_P1;PMS_P2;Temp;Humidity;BMP_temperature;BMP_pressure;BME280_temperature;BME280_humidity;BME280_pressure;Samples;Min_cycle;Max_cycle;Signal;HPM_P1;HPM_P2
2021/05/27 07:29:13;;;;;;;6.20;3.03;;;;;;;;;;12683405;23;20002;-85
2021/05/27 07:34:19;;;;;;;4.57;3.13;;;;;;;;;;12683956;23;20021;-87
2021/05/27 07:45:12;;;;;;;3.80;3.40;;;;;;;;;;12731152;23;20013;-87
2021/05/27 07:50:29;;;;;;;5.13;4.30;;;;;;;;;;12809808;23;20016;-86
2021/05/27 08:13:04;;;;;;;5.00;3.60;;;;;;;;;;12807395;23;20021;-84
2021/05/27 08:18:46;;;;;;;5.00;3.40;;;;;;;;;;12680470;23;20017;-87
2021/05/27 08:24:44;;;;;;;4.38;3.70;;;;;;;;;;12702294;23;20125;-85
2021/05/27 08:35:49;;;;;;;5.13;3.30;;;;;;;;;;12715904;23;20498;-87
2021/05/27 09:27:07;;;;;;;4.53;2.50;;;;;;;;;;12505593;23;20011;-86
2021/05/27 09:32:45;;;;;;;3.17;2.75;;;;;;;;;;12612988;23;20013;-87
2021/05/27 09:38:09;;;;;;;4.45;2.83;;;;;;;;;;12784403;23;20013;-88
2021/05/27 10:17:39;;;;;;;3.75;2.10;;;;;;;;;;12698576;23;20052;-86
2021/05/27 10:22:56;;;;;;;3.35;2.05;;;;;;;;;;12808912;23;20346;-86
2021/05/27 10:34:13;;;;;;;4.65;2.10;;;;;;;;;;12809240;23;20016;-86
2021/05/27 10:45:11;;;;;;;3.42;2.10;;;;;;;;;;12796650;23;20012;-86
2021/05/27 10:50:19;;;;;;;6.20;2.53;;;;;;;;;;12817955;23;20033;-86
2021/05/27 10:55:43;;;;;;;5.65;2.40;;;;;;;;;;12822904;23;20001;-87
2021/05/27 11:00:53;;;;;;;3.92;2.45;;;;;;;;;;12828701;23;20016;-86
2021/05/27 11:06:44;;;;;;;3.97;2.45;;;;;;;;;;12820835;23;20008;-87
2021/05/27 11:11:45;;;;;;;;;;;;;;;;;;12707330;23;20017;-85
2021/05/27 11:17:07;;;;;;;3.95;2.40;;;;;;;;;;12828817;23;19900;-86
2021/05/27 11:22:26;;;;;;;5.70;2.50;;;;;;;;;;12841318;23;20013;-84
2021/05/27 11:28:15;;;;;;;;;;;;;;;;;;;;;
2021/05/27 11:33:30;;;;;;;3.80;1.90;;;;;;;;;;12547919;23;20464;-87
2021/05/27 11:38:51;;;;;;;3.80;2.03;;;;;;;;;;12558582;23;20007;-87
2021/05/27 11:43:53;;;;;;;3.10;2.10;;;;;;;;;;12692754;23;20012;-87
2021/05/27 11:54:02;;;;;;;4.95;2.88;;;;;;;;;;12842326;23;20029;-87
2021/05/27 11:59:16;;;;;;;2.97;2.13;;;;;;;;;;12809337;23;20396;-87
2021/05/27 12:04:28;;;;;;;4.10;2.60;;;;;;;;;;12806052;23;20029;-87
2021/05/27 12:09:38;;;;;;;3.97;2.83;;;;;;;;;;12805690;23;20005;-87
2021/05/27 12:14:58;;;;;;;5.07;3.13;;;;;;;;;;12804117;23;20013;-87
2021/05/27 12:20:17;;;;;;;5.25;2.55;;;;;;;;;;12804575;23;20001;-87
2021/05/27 12:25:20;;;;;;;4.07;2.50;;;;;;;;;;12806200;23;19997;-87
2021/05/27 12:30:24;;;;;;;4.30;2.35;;;;;;;;;;12805563;23;20001;-87
2021/05/27 12:35:33;;;;;;;9.35;2.67;;;;;;;;;;12804114;23;20319;-87
2021/05/27 12:40:44;;;;;;;6.05;2.75;;;;;;;;;;12807451;23;20001;-87
2021/05/27 12:46:06;;;;;;;5.10;2.70;;;;;;;;;;12809553;23;20005;-87
2021/05/27 12:51:10;;;;;;;5.35;2.30;;;;;;;;;;12809695;23;20459;-87
2021/05/27 12:56:24;;;;;;;4.55;2.47;;;;;;;;;;12821935;23;20412;-86
2021/05/27 13:01:34;;;;;;;5.03;2.78;;;;;;;;;;12787902;23;20524;-86
2021/05/27 13:06:45;;;;;;;4.45;2.70;;;;;;;;;;12811873;23;20008;-86
2021/05/27 13:12:16;;;;;;;6.30;3.03;;;;;;;;;;12786935;23;20291;-87
2021/05/27 13:17:20;;;;;;;5.10;2.90;;;;;;;;;;12809844;23;20060;-88
2021/05/27 13:22:23;;;;;;;5.10;3.42;;;;;;;;;;12810813;23;20032;-87
2021/05/27 13:27:28;;;;;;;5.30;3.00;;;;;;;;;;12810525;23;20063;-86
2021/05/27 13:32:40;;;;;;;4.07;2.88;;;;;;;;;;12808803;23;20080;-89
2021/05/27 13:37:56;;;;;;;5.93;2.78;;;;;;;;;;12806321;23;20052;-86
2021/05/27 13:43:34;;;;;;;4.63;2.92;;;;;;;;;;12805510;23;20009;-85
2021/05/27 13:48:37;;;;;;;6.30;3.35;;;;;;;;;;12803356;23;20448;-86
2021/05/27 13:54:00;;;;;;;5.22;3.10;;;;;;;;;;12787206;23;20012;-85
2021/05/27 13:59:14;;;;;;;6.60;2.80;;;;;;;;;;12809549;23;20012;-86
2021/05/27 14:04:34;;;;;;;5.35;2.75;;;;;;;;;;12809218;23;20381;-86
2021/05/27 14:09:36;;;;;;;4.75;2.92;;;;;;;;;;12817982;23;20008;-85
2021/05/27 14:14:38;;;;;;;3.80;2.60;;;;;;;;;;12829073;23;20033;-86
2021/05/27 14:19:54;;;;;;;5.43;2.40;;;;;;;;;;12854060;23;20017;-85
2021/05/27 14:25:15;;;;;;;6.82;2.60;;;;;;;;;;12814181;23;20013;-85
2021/05/27 14:30:38;;;;;;;6.07;2.60;;;;;;;;;;12810605;23;20009;-86
2021/05/27 14:36:01;;;;;;;4.60;2.42;;;;;;;;;;12818436;23;20032;-85
2021/05/27 14:41:19;;;;;;;5.15;2.75;;;;;;;;;;12824075;23;20001;-86
2021/05/27 14:46:25;;;;;;;5.68;2.50;;;;;;;;;;12822490;23;20079;-85
2021/05/27 14:51:28;;;;;;;4.05;2.40;;;;;;;;;;12834158;23;20009;-86
2021/05/27 14:56:41;;;;;;;5.00;2.53;;;;;;;;;;12810298;23;20006;-86
2021/05/27 15:02:14;;;;;;;5.05;2.70;;;;;;;;;;12783150;23;20013;-86
2021/05/27 15:07:36;;;;;;;;;;;;;;;;;;;;;
2021/05/27 15:18:17;;;;;;;3.63;1.80;;;;;;;;;;12775782;23;20430;-86
2021/05/27 15:23:19;;;;;;;4.65;1.73;;;;;;;;;;12804590;23;20005;-85
2021/05/27 15:29:06;;;;;;;;;;;;;;;;;;;;;
2021/05/27 15:35:00;;;;;;;4.70;1.77;;;;;;;;;;12778553;23;20023;-85
2021/05/27 15:40:23;;;;;;;2.60;1.60;;;;;;;;;;12803295;23;20005;-86
2021/05/27 15:45:39;;;;;;;3.47;1.70;;;;;;;;;;12807683;23;20005;-86
2021/05/27 15:50:47;;;;;;;4.43;2.22;;;;;;;;;;12808083;23;20005;-85
2021/05/27 15:55:57;;;;;;;2.78;1.42;;;;;;;;;;12807024;23;20088;-86
2021/05/27 16:01:06;;;;;;;6.28;2.08;;;;;;;;;;12820994;23;20009;-86
2021/05/27 16:06:10;;;;;;;4.28;1.80;;;;;;;;;;12828976;23;20043;-86
2021/05/27 16:11:33;;;;;;;4.72;1.70;;;;;;;;;;12845205;23;20009;-87
2021/05/27 16:16:40;;;;;;;4.07;1.40;;;;;;;;;;12806511;23;20008;-86
2021/05/27 16:21:44;;;;;;;3.05;1.40;;;;;;;;;;12779000;23;20394;-86
2021/05/27 16:26:45;;;;;;;4.00;1.80;;;;;;;;;;12785603;23;20087;-87
2021/05/27 16:31:46;;;;;;;4.38;2.22;;;;;;;;;;12801202;23;20013;-86
2021/05/27 16:42:07;;;;;;;2.92;1.80;;;;;;;;;;12803002;23;20009;-87
2021/05/27 16:47:09;;;;;;;3.72;1.77;;;;;;;;;;12806941;23;20005;-86
2021/05/27 16:52:11;;;;;;;4.25;1.60;;;;;;;;;;12816798;23;20009;-86
2021/05/27 16:57:12;;;;;;;4.15;1.90;;;;;;;;;;12826599;23;19996;-86
2021/05/27 17:02:13;;;;;;;4.15;1.90;;;;;;;;;;12815904;23;20009;-86
2021/05/27 17:07:14;;;;;;;6.65;2.10;;;;;;;;;;12830395;23;20001;-87
2021/05/27 17:12:14;;;;;;;3.30;1.67;;;;;;;;;;12806850;23;20016;-87
2021/05/27 17:17:15;;;;;;;4.05;1.92;;;;;;;;;;12820936;23;20087;-86
2021/05/27 17:22:16;;;;;;;3.28;1.70;;;;;;;;;;12804671;23;20305;-86
2021/05/27 18:17:27;;;;;;;5.03;1.70;;;;;;;;;;12737584;23;20029;-86
2021/05/27 18:23:08;;;;;;;4.13;1.50;;;;;;;;;;12492505;23;20375;-86
2021/05/27 18:56:59;;;;;;;2.53;1.43;;;;;;;;;;12578843;23;20010;-86
2021/05/27 19:14:14;;;;;;;3.13;1.40;;;;;;;;;;12681494;23;20033;-86
